Terminal Aerodrome Forecast
Issued by NWS Sioux Falls, SD

Home | Current Version | Previous Version | Graphics & Text | Print | Product List | Glossary On
Versions: 1 2 3 4 5 6 7 8 9 10 11 12 13 14 15
000
FTUS43 KFSD 301122
TAFFSD
TAF
KFSD 301122Z 3012/0112 06013KT P6SM VCSH OVC050
     FM301300 04017G22KT P6SM -SHRA BKN040
     FM301700 04023G31KT 5SM RA BR OVC025
     FM010000 03018G26KT 3SM RA BR OVC012
     FM010400 01017G25KT 3SM RASN BR OVC008
     FM010700 01018G27KT 4SM -SN BR OVC008=

USA.gov is the U.S. government's official web portal to all federal, state and local government web resources and services.